sensor_id;sensor_type;location;lat;lon;timestamp;P1;durP1;ratioP1;P2;durP2;ratioP2
31126;SDS011;17775;57.948;12.514;2023-10-13T00:01:09;0.25;;;0.20;;
31126;SDS011;17775;57.948;12.514;2023-10-13T00:03:41;0.20;;;0.20;;
31126;SDS011;17775;57.948;12.514;2023-10-13T00:06:08;0.40;;;0.30;;
31126;SDS011;17775;57.948;12.514;2023-10-13T00:08:35;0.20;;;0.20;;
31126;SDS011;17775;57.948;12.514;2023-10-13T00:11:03;0.20;;;0.20;;
31126;SDS011;17775;57.948;12.514;2023-10-13T00:13:31;0.40;;;0.40;;
31126;SDS011;17775;57.948;12.514;2023-10-13T00:16:17;0.30;;;0.30;;
31126;SDS011;17775;57.948;12.514;2023-10-13T00:18:44;0.32;;;0.20;;
31126;SDS011;17775;57.948;12.514;2023-10-13T00:21:11;0.38;;;0.20;;
31126;SDS011;17775;57.948;12.514;2023-10-13T00:23:42;0.30;;;0.30;;
31126;SDS011;17775;57.948;12.514;2023-10-13T00:28:50;0.30;;;0.30;;
31126;SDS011;17775;57.948;12.514;2023-10-13T00:31:25;0.30;;;0.20;;
31126;SDS011;17775;57.948;12.514;2023-10-13T00:34:03;0.30;;;0.30;;
31126;SDS011;17775;57.948;12.514;2023-10-13T00:36:52;0.45;;;0.30;;
31126;SDS011;17775;57.948;12.514;2023-10-13T00:39:37;0.25;;;0.20;;
31126;SDS011;17775;57.948;12.514;2023-10-13T00:42:12;0.50;;;0.30;;
31126;SDS011;17775;57.948;12.514;2023-10-13T00:47:20;0.20;;;0.20;;
31126;SDS011;17775;57.948;12.514;2023-10-13T00:50:05;0.20;;;0.20;;
31126;SDS011;17775;57.948;12.514;2023-10-13T00:52:32;0.20;;;0.20;;
31126;SDS011;17775;57.948;12.514;2023-10-13T00:55:01;0.20;;;0.20;;
31126;SDS011;17775;57.948;12.514;2023-10-13T00:57:28;0.20;;;0.20;;
31126;SDS011;17775;57.948;12.514;2023-10-13T00:59:56;0.20;;;0.20;;
31126;SDS011;17775;57.948;12.514;2023-10-13T01:02:38;0.30;;;0.30;;
31126;SDS011;17775;57.948;12.514;2023-10-13T01:05:05;0.20;;;0.20;;
31126;SDS011;17775;57.948;12.514;2023-10-13T01:07:32;0.30;;;0.30;;
31126;SDS011;17775;57.948;12.514;2023-10-13T01:09:58;0.52;;;0.20;;
31126;SDS011;17775;57.948;12.514;2023-10-13T01:12:27;0.35;;;0.22;;
31126;SDS011;17775;57.948;12.514;2023-10-13T01:14:55;0.20;;;0.20;;
31126;SDS011;17775;57.948;12.514;2023-10-13T01:17:25;0.30;;;0.30;;
31126;SDS011;17775;57.948;12.514;2023-10-13T01:19:58;0.20;;;0.20;;
31126;SDS011;17775;57.948;12.514;2023-10-13T01:22:25;0.20;;;0.20;;
31126;SDS011;17775;57.948;12.514;2023-10-13T01:24:54;0.20;;;0.20;;
31126;SDS011;17775;57.948;12.514;2023-10-13T01:27:30;0.30;;;0.20;;
31126;SDS011;17775;57.948;12.514;2023-10-13T01:29:57;0.20;;;0.20;;
31126;SDS011;17775;57.948;12.514;2023-10-13T01:32:32;0.20;;;0.20;;
31126;SDS011;17775;57.948;12.514;2023-10-13T01:34:59;0.20;;;0.20;;
31126;SDS011;17775;57.948;12.514;2023-10-13T01:37:32;0.20;;;0.20;;
31126;SDS011;17775;57.948;12.514;2023-10-13T01:39:58;0.20;;;0.20;;
31126;SDS011;17775;57.948;12.514;2023-10-13T01:42:24;0.20;;;0.20;;
31126;SDS011;17775;57.948;12.514;2023-10-13T01:44:51;0.20;;;0.20;;
31126;SDS011;17775;57.948;12.514;2023-10-13T01:47:18;0.20;;;0.20;;
31126;SDS011;17775;57.948;12.514;2023-10-13T01:49:44;0.20;;;0.20;;
31126;SDS011;17775;57.948;12.514;2023-10-13T01:52:16;0.20;;;0.20;;
31126;SDS011;17775;57.948;12.514;2023-10-13T01:54:43;0.20;;;0.20;;
31126;SDS011;17775;57.948;12.514;2023-10-13T01:57:11;0.63;;;0.30;;
31126;SDS011;17775;57.948;12.514;2023-10-13T01:59:44;0.20;;;0.20;;
31126;SDS011;17775;57.948;12.514;2023-10-13T02:02:11;0.20;;;0.20;;
31126;SDS011;17775;57.948;12.514;2023-10-13T02:04:40;0.20;;;0.20;;
31126;SDS011;17775;57.948;12.514;2023-10-13T02:07:24;0.20;;;0.20;;
31126;SDS011;17775;57.948;12.514;2023-10-13T02:09:56;0.20;;;0.20;;
31126;SDS011;17775;57.948;12.514;2023-10-13T02:12:22;0.38;;;0.30;;
31126;SDS011;17775;57.948;12.514;2023-10-13T02:14:55;0.28;;;0.28;;
31126;SDS011;17775;57.948;12.514;2023-10-13T02:17:21;0.20;;;0.20;;
31126;SDS011;17775;57.948;12.514;2023-10-13T02:19:53;0.20;;;0.20;;
31126;SDS011;17775;57.948;12.514;2023-10-13T02:22:20;0.20;;;0.20;;
31126;SDS011;17775;57.948;12.514;2023-10-13T02:24:55;0.20;;;0.20;;
31126;SDS011;17775;57.948;12.514;2023-10-13T02:27:28;0.20;;;0.20;;
31126;SDS011;17775;57.948;12.514;2023-10-13T02:29:54;0.20;;;0.20;;
31126;SDS011;17775;57.948;12.514;2023-10-13T02:32:29;0.20;;;0.20;;
31126;SDS011;17775;57.948;12.514;2023-10-13T02:34:56;0.22;;;0.22;;
31126;SDS011;17775;57.948;12.514;2023-10-13T02:37:32;0.20;;;0.20;;
31126;SDS011;17775;57.948;12.514;2023-10-13T02:39:58;0.28;;;0.20;;
31126;SDS011;17775;57.948;12.514;2023-10-13T02:42:26;0.20;;;0.20;;
31126;SDS011;17775;57.948;12.514;2023-10-13T02:44:52;0.20;;;0.20;;
31126;SDS011;17775;57.948;12.514;2023-10-13T02:47:22;0.20;;;0.20;;
31126;SDS011;17775;57.948;12.514;2023-10-13T02:49:52;0.30;;;0.30;;
31126;SDS011;17775;57.948;12.514;2023-10-13T02:52:19;0.20;;;0.20;;
31126;SDS011;17775;57.948;12.514;2023-10-13T02:54:46;0.50;;;0.30;;
31126;SDS011;17775;57.948;12.514;2023-10-13T02:57:18;0.20;;;0.20;;
31126;SDS011;17775;57.948;12.514;2023-10-13T02:59:45;0.25;;;0.25;;
31126;SDS011;17775;57.948;12.514;2023-10-13T03:02:22;0.20;;;0.20;;
31126;SDS011;17775;57.948;12.514;2023-10-13T03:04:56;0.30;;;0.30;;
31126;SDS011;17775;57.948;12.514;2023-10-13T03:07:26;0.30;;;0.30;;
31126;SDS011;17775;57.948;12.514;2023-10-13T03:09:57;0.30;;;0.30;;
31126;SDS011;17775;57.948;12.514;2023-10-13T03:12:28;0.20;;;0.20;;
31126;SDS011;17775;57.948;12.514;2023-10-13T03:15:02;0.25;;;0.22;;
31126;SDS011;17775;57.948;12.514;2023-10-13T03:17:44;0.28;;;0.20;;
31126;SDS011;17775;57.948;12.514;2023-10-13T03:20:16;0.28;;;0.28;;
31126;SDS011;17775;57.948;12.514;2023-10-13T03:22:52;0.20;;;0.20;;
31126;SDS011;17775;57.948;12.514;2023-10-13T03:25:18;0.45;;;0.20;;
31126;SDS011;17775;57.948;12.514;2023-10-13T03:28:08;0.30;;;0.30;;
31126;SDS011;17775;57.948;12.514;2023-10-13T03:30:40;0.25;;;0.25;;
31126;SDS011;17775;57.948;12.514;2023-10-13T03:33:10;0.35;;;0.30;;
31126;SDS011;17775;57.948;12.514;2023-10-13T03:35:38;0.20;;;0.20;;
31126;SDS011;17775;57.948;12.514;2023-10-13T03:38:20;0.20;;;0.20;;
31126;SDS011;17775;57.948;12.514;2023-10-13T03:40:48;0.20;;;0.20;;
31126;SDS011;17775;57.948;12.514;2023-10-13T03:43:15;0.47;;;0.30;;
31126;SDS011;17775;57.948;12.514;2023-10-13T03:45:48;0.25;;;0.20;;
31126;SDS011;17775;57.948;12.514;2023-10-13T03:48:18;0.70;;;0.35;;
31126;SDS011;17775;57.948;12.514;2023-10-13T03:50:51;0.20;;;0.20;;
31126;SDS011;17775;57.948;12.514;2023-10-13T03:53:30;0.30;;;0.30;;
31126;SDS011;17775;57.948;12.514;2023-10-13T03:56:02;0.50;;;0.30;;
31126;SDS011;17775;57.948;12.514;2023-10-13T03:58:39;0.30;;;0.30;;
31126;SDS011;17775;57.948;12.514;2023-10-13T04:01:09;0.32;;;0.32;;
31126;SDS011;17775;57.948;12.514;2023-10-13T04:03:41;0.20;;;0.20;;
31126;SDS011;17775;57.948;12.514;2023-10-13T04:06:23;0.20;;;0.20;;
31126;SDS011;17775;57.948;12.514;2023-10-13T04:09:16;0.20;;;0.20;;
31126;SDS011;17775;57.948;12.514;2023-10-13T04:11:59;0.20;;;0.20;;
31126;SDS011;17775;57.948;12.514;2023-10-13T04:14:46;0.20;;;0.20;;
31126;SDS011;17775;57.948;12.514;2023-10-13T04:17:15;0.20;;;0.20;;
31126;SDS011;17775;57.948;12.514;2023-10-13T04:19:42;0.40;;;0.40;;
31126;SDS011;17775;57.948;12.514;2023-10-13T04:22:27;0.20;;;0.20;;
31126;SDS011;17775;57.948;12.514;2023-10-13T04:28:02;0.43;;;0.30;;
31126;SDS011;17775;57.948;12.514;2023-10-13T04:30:46;0.47;;;0.25;;
31126;SDS011;17775;57.948;12.514;2023-10-13T04:33:23;0.20;;;0.20;;
31126;SDS011;17775;57.948;12.514;2023-10-13T04:36:06;0.30;;;0.30;;
31126;SDS011;17775;57.948;12.514;2023-10-13T04:39:03;0.30;;;0.30;;
31126;SDS011;17775;57.948;12.514;2023-10-13T04:41:33;0.30;;;0.28;;
31126;SDS011;17775;57.948;12.514;2023-10-13T04:44:15;0.20;;;0.20;;
31126;SDS011;17775;57.948;12.514;2023-10-13T04:47:00;0.28;;;0.20;;
31126;SDS011;17775;57.948;12.514;2023-10-13T04:49:28;0.30;;;0.30;;
31126;SDS011;17775;57.948;12.514;2023-10-13T04:51:56;0.28;;;0.28;;
31126;SDS011;17775;57.948;12.514;2023-10-13T04:54:26;0.30;;;0.30;;
31126;SDS011;17775;57.948;12.514;2023-10-13T04:56:59;0.30;;;0.30;;
31126;SDS011;17775;57.948;12.514;2023-10-13T04:59:47;0.28;;;0.28;;
31126;SDS011;17775;57.948;12.514;2023-10-13T05:02:33;0.30;;;0.30;;
31126;SDS011;17775;57.948;12.514;2023-10-13T05:05:03;0.40;;;0.40;;
31126;SDS011;17775;57.948;12.514;2023-10-13T05:07:50;0.30;;;0.30;;
31126;SDS011;17775;57.948;12.514;2023-10-13T05:10:35;0.30;;;0.30;;
31126;SDS011;17775;57.948;12.514;2023-10-13T05:13:30;0.20;;;0.20;;
31126;SDS011;17775;57.948;12.514;2023-10-13T05:16:15;0.30;;;0.28;;
31126;SDS011;17775;57.948;12.514;2023-10-13T05:19:00;0.20;;;0.20;;
31126;SDS011;17775;57.948;12.514;2023-10-13T05:21:46;0.40;;;0.30;;
31126;SDS011;17775;57.948;12.514;2023-10-13T05:24:30;0.65;;;0.30;;
31126;SDS011;17775;57.948;12.514;2023-10-13T05:27:15;0.20;;;0.20;;
31126;SDS011;17775;57.948;12.514;2023-10-13T05:30:00;0.20;;;0.20;;
31126;SDS011;17775;57.948;12.514;2023-10-13T05:32:45;0.30;;;0.30;;
31126;SDS011;17775;57.948;12.514;2023-10-13T05:35:30;0.30;;;0.30;;
31126;SDS011;17775;57.948;12.514;2023-10-13T05:38:15;0.30;;;0.30;;
31126;SDS011;17775;57.948;12.514;2023-10-13T05:41:01;0.20;;;0.20;;
31126;SDS011;17775;57.948;12.514;2023-10-13T05:43:50;0.30;;;0.30;;
31126;SDS011;17775;57.948;12.514;2023-10-13T05:46:35;0.28;;;0.22;;
31126;SDS011;17775;57.948;12.514;2023-10-13T05:49:05;0.20;;;0.20;;
31126;SDS011;17775;57.948;12.514;2023-10-13T05:51:32;0.90;;;0.30;;
31126;SDS011;17775;57.948;12.514;2023-10-13T05:54:02;0.57;;;0.40;;
31126;SDS011;17775;57.948;12.514;2023-10-13T05:59:26;3.17;;;0.70;;
31126;SDS011;17775;57.948;12.514;2023-10-13T06:02:11;3.22;;;1.02;;
31126;SDS011;17775;57.948;12.514;2023-10-13T06:04:56;1.02;;;0.60;;
31126;SDS011;17775;57.948;12.514;2023-10-13T06:07:42;0.88;;;0.52;;
31126;SDS011;17775;57.948;12.514;2023-10-13T06:10:26;2.20;;;0.85;;
31126;SDS011;17775;57.948;12.514;2023-10-13T06:13:12;0.95;;;0.47;;
31126;SDS011;17775;57.948;12.514;2023-10-13T06:15:57;1.30;;;0.52;;
31126;SDS011;17775;57.948;12.514;2023-10-13T06:18:42;1.70;;;0.68;;
31126;SDS011;17775;57.948;12.514;2023-10-13T06:21:28;1.42;;;0.90;;
31126;SDS011;17775;57.948;12.514;2023-10-13T06:24:13;4.03;;;1.10;;
31126;SDS011;17775;57.948;12.514;2023-10-13T06:26:58;6.32;;;1.40;;
31126;SDS011;17775;57.948;12.514;2023-10-13T06:29:43;4.88;;;1.33;;
31126;SDS011;17775;57.948;12.514;2023-10-13T06:32:12;6.63;;;1.65;;
31126;SDS011;17775;57.948;12.514;2023-10-13T06:34:40;4.70;;;1.70;;
31126;SDS011;17775;57.948;12.514;2023-10-13T06:37:17;5.15;;;1.33;;
31126;SDS011;17775;57.948;12.514;2023-10-13T06:39:57;2.88;;;1.30;;
31126;SDS011;17775;57.948;12.514;2023-10-13T06:42:25;3.28;;;1.17;;
31126;SDS011;17775;57.948;12.514;2023-10-13T06:44:54;5.57;;;1.55;;
31126;SDS011;17775;57.948;12.514;2023-10-13T06:47:21;4.25;;;1.45;;
31126;SDS011;17775;57.948;12.514;2023-10-13T06:49:48;11.48;;;3.05;;
31126;SDS011;17775;57.948;12.514;2023-10-13T06:52:17;7.20;;;1.67;;
31126;SDS011;17775;57.948;12.514;2023-10-13T06:54:44;5.80;;;1.70;;
31126;SDS011;17775;57.948;12.514;2023-10-13T06:57:10;6.15;;;2.10;;
31126;SDS011;17775;57.948;12.514;2023-10-13T06:59:46;5.03;;;1.45;;
31126;SDS011;17775;57.948;12.514;2023-10-13T07:02:13;5.45;;;1.55;;
31126;SDS011;17775;57.948;12.514;2023-10-13T07:07:33;3.25;;;1.38;;
31126;SDS011;17775;57.948;12.514;2023-10-13T07:10:00;4.05;;;1.38;;
31126;SDS011;17775;57.948;12.514;2023-10-13T07:12:26;5.30;;;1.77;;
31126;SDS011;17775;57.948;12.514;2023-10-13T07:14:56;5.10;;;1.55;;
31126;SDS011;17775;57.948;12.514;2023-10-13T07:17:37;5.60;;;1.60;;
31126;SDS011;17775;57.948;12.514;2023-10-13T07:20:09;5.03;;;1.20;;
31126;SDS011;17775;57.948;12.514;2023-10-13T07:22:43;4.55;;;1.48;;
31126;SDS011;17775;57.948;12.514;2023-10-13T07:25:23;4.47;;;1.52;;
31126;SDS011;17775;57.948;12.514;2023-10-13T07:27:52;3.53;;;0.90;;
31126;SDS011;17775;57.948;12.514;2023-10-13T07:30:20;3.90;;;1.55;;
31126;SDS011;17775;57.948;12.514;2023-10-13T07:32:53;7.18;;;1.52;;
31126;SDS011;17775;57.948;12.514;2023-10-13T07:35:19;3.05;;;1.45;;
31126;SDS011;17775;57.948;12.514;2023-10-13T07:37:47;4.38;;;1.40;;
31126;SDS011;17775;57.948;12.514;2023-10-13T07:40:19;5.30;;;1.35;;
31126;SDS011;17775;57.948;12.514;2023-10-13T07:42:52;3.50;;;1.38;;
31126;SDS011;17775;57.948;12.514;2023-10-13T07:45:18;4.40;;;1.52;;
31126;SDS011;17775;57.948;12.514;2023-10-13T07:47:48;4.30;;;1.30;;
31126;SDS011;17775;57.948;12.514;2023-10-13T07:50:18;4.25;;;1.35;;
31126;SDS011;17775;57.948;12.514;2023-10-13T07:52:53;3.75;;;0.90;;
31126;SDS011;17775;57.948;12.514;2023-10-13T07:55:31;2.75;;;1.20;;
31126;SDS011;17775;57.948;12.514;2023-10-13T07:58:04;3.55;;;1.40;;
31126;SDS011;17775;57.948;12.514;2023-10-13T08:00:34;4.65;;;1.75;;
31126;SDS011;17775;57.948;12.514;2023-10-13T08:03:15;8.35;;;1.73;;
31126;SDS011;17775;57.948;12.514;2023-10-13T08:05:45;6.18;;;1.70;;
31126;SDS011;17775;57.948;12.514;2023-10-13T08:08:31;7.60;;;2.38;;
31126;SDS011;17775;57.948;12.514;2023-10-13T08:11:08;7.60;;;2.15;;
31126;SDS011;17775;57.948;12.514;2023-10-13T08:16:33;3.42;;;1.20;;
31126;SDS011;17775;57.948;12.514;2023-10-13T08:19:13;4.00;;;1.50;;
31126;SDS011;17775;57.948;12.514;2023-10-13T08:21:45;3.55;;;1.55;;
31126;SDS011;17775;57.948;12.514;2023-10-13T08:24:25;4.45;;;1.33;;
31126;SDS011;17775;57.948;12.514;2023-10-13T08:27:28;4.80;;;1.55;;
31126;SDS011;17775;57.948;12.514;2023-10-13T08:30:02;2.90;;;1.38;;
31126;SDS011;17775;57.948;12.514;2023-10-13T08:33:06;6.57;;;1.85;;
31126;SDS011;17775;57.948;12.514;2023-10-13T08:35:45;7.55;;;2.17;;
31126;SDS011;17775;57.948;12.514;2023-10-13T08:38:43;13.38;;;2.38;;
31126;SDS011;17775;57.948;12.514;2023-10-13T08:41:17;8.35;;;1.90;;
31126;SDS011;17775;57.948;12.514;2023-10-13T08:43:50;6.57;;;1.65;;
31126;SDS011;17775;57.948;12.514;2023-10-13T08:46:19;4.60;;;1.73;;
31126;SDS011;17775;57.948;12.514;2023-10-13T08:48:57;4.47;;;1.83;;
31126;SDS011;17775;57.948;12.514;2023-10-13T08:51:42;4.93;;;1.52;;
31126;SDS011;17775;57.948;12.514;2023-10-13T08:54:14;7.15;;;2.30;;
31126;SDS011;17775;57.948;12.514;2023-10-13T08:57:01;7.28;;;2.10;;
31126;SDS011;17775;57.948;12.514;2023-10-13T08:59:51;3.72;;;1.30;;
31126;SDS011;17775;57.948;12.514;2023-10-13T09:02:23;6.63;;;2.17;;
31126;SDS011;17775;57.948;12.514;2023-10-13T09:05:10;6.25;;;1.73;;
31126;SDS011;17775;57.948;12.514;2023-10-13T09:07:56;7.53;;;2.13;;
31126;SDS011;17775;57.948;12.514;2023-10-13T09:10:34;7.35;;;2.00;;
31126;SDS011;17775;57.948;12.514;2023-10-13T09:13:11;7.97;;;2.40;;
31126;SDS011;17775;57.948;12.514;2023-10-13T09:15:45;4.93;;;1.83;;
31126;SDS011;17775;57.948;12.514;2023-10-13T09:18:32;5.93;;;2.30;;
31126;SDS011;17775;57.948;12.514;2023-10-13T09:21:09;8.55;;;2.67;;
31126;SDS011;17775;57.948;12.514;2023-10-13T09:23:54;6.85;;;2.47;;
31126;SDS011;17775;57.948;12.514;2023-10-13T09:26:40;7.30;;;2.38;;
31126;SDS011;17775;57.948;12.514;2023-10-13T09:29:19;7.07;;;2.75;;
31126;SDS011;17775;57.948;12.514;2023-10-13T09:31:46;5.05;;;1.92;;
31126;SDS011;17775;57.948;12.514;2023-10-13T09:34:21;6.65;;;2.22;;
31126;SDS011;17775;57.948;12.514;2023-10-13T09:36:50;5.82;;;2.13;;
31126;SDS011;17775;57.948;12.514;2023-10-13T09:39:23;10.98;;;2.80;;
31126;SDS011;17775;57.948;12.514;2023-10-13T09:42:01;11.43;;;3.20;;
31126;SDS011;17775;57.948;12.514;2023-10-13T09:44:29;6.20;;;2.40;;
31126;SDS011;17775;57.948;12.514;2023-10-13T09:47:01;7.78;;;2.53;;
31126;SDS011;17775;57.948;12.514;2023-10-13T09:49:37;7.32;;;2.40;;
31126;SDS011;17775;57.948;12.514;2023-10-13T09:52:18;4.03;;;1.88;;
31126;SDS011;17775;57.948;12.514;2023-10-13T09:55:23;6.88;;;1.83;;
31126;SDS011;17775;57.948;12.514;2023-10-13T09:57:56;9.73;;;2.28;;
31126;SDS011;17775;57.948;12.514;2023-10-13T10:00:26;7.72;;;2.13;;
31126;SDS011;17775;57.948;12.514;2023-10-13T10:03:12;8.68;;;2.05;;
31126;SDS011;17775;57.948;12.514;2023-10-13T10:06:01;9.07;;;2.25;;
31126;SDS011;17775;57.948;12.514;2023-10-13T10:08:32;12.25;;;2.30;;
31126;SDS011;17775;57.948;12.514;2023-10-13T10:16:29;6.63;;;2.22;;
31126;SDS011;17775;57.948;12.514;2023-10-13T10:19:02;7.10;;;2.33;;
31126;SDS011;17775;57.948;12.514;2023-10-13T10:21:35;6.45;;;2.05;;
31126;SDS011;17775;57.948;12.514;2023-10-13T10:24:02;9.38;;;2.33;;
31126;SDS011;17775;57.948;12.514;2023-10-13T10:26:34;6.85;;;1.80;;
31126;SDS011;17775;57.948;12.514;2023-10-13T10:29:10;4.70;;;1.70;;
31126;SDS011;17775;57.948;12.514;2023-10-13T10:31:37;5.78;;;1.90;;
31126;SDS011;17775;57.948;12.514;2023-10-13T10:34:13;4.32;;;1.80;;
31126;SDS011;17775;57.948;12.514;2023-10-13T10:36:42;4.32;;;1.80;;
31126;SDS011;17775;57.948;12.514;2023-10-13T10:39:09;5.32;;;1.65;;
31126;SDS011;17775;57.948;12.514;2023-10-13T10:41:39;2.65;;;1.27;;
31126;SDS011;17775;57.948;12.514;2023-10-13T10:44:14;5.40;;;1.42;;
31126;SDS011;17775;57.948;12.514;2023-10-13T10:46:49;3.15;;;1.23;;
31126;SDS011;17775;57.948;12.514;2023-10-13T10:49:25;2.97;;;1.17;;
31126;SDS011;17775;57.948;12.514;2023-10-13T10:51:58;4.50;;;1.40;;
31126;SDS011;17775;57.948;12.514;2023-10-13T10:54:27;3.97;;;1.05;;
31126;SDS011;17775;57.948;12.514;2023-10-13T10:57:07;2.97;;;1.20;;
31126;SDS011;17775;57.948;12.514;2023-10-13T10:59:44;3.15;;;1.23;;
31126;SDS011;17775;57.948;12.514;2023-10-13T11:02:11;5.63;;;1.55;;
31126;SDS011;17775;57.948;12.514;2023-10-13T11:04:50;4.90;;;1.23;;
31126;SDS011;17775;57.948;12.514;2023-10-13T11:07:21;5.78;;;1.50;;
31126;SDS011;17775;57.948;12.514;2023-10-13T11:09:47;5.25;;;1.40;;
31126;SDS011;17775;57.948;12.514;2023-10-13T11:12:19;3.35;;;1.15;;
31126;SDS011;17775;57.948;12.514;2023-10-13T11:15:02;4.70;;;1.98;;
31126;SDS011;17775;57.948;12.514;2023-10-13T11:17:29;2.53;;;1.00;;
31126;SDS011;17775;57.948;12.514;2023-10-13T11:20:09;2.85;;;1.00;;
31126;SDS011;17775;57.948;12.514;2023-10-13T11:22:55;5.00;;;1.50;;
31126;SDS011;17775;57.948;12.514;2023-10-13T11:25:25;4.15;;;1.35;;
31126;SDS011;17775;57.948;12.514;2023-10-13T11:30:44;6.53;;;2.05;;
31126;SDS011;17775;57.948;12.514;2023-10-13T11:33:16;7.65;;;1.52;;
31126;SDS011;17775;57.948;12.514;2023-10-13T11:36:02;4.00;;;1.52;;
31126;SDS011;17775;57.948;12.514;2023-10-13T11:38:30;3.13;;;1.20;;
31126;SDS011;17775;57.948;12.514;2023-10-13T11:41:06;2.97;;;1.35;;
31126;SDS011;17775;57.948;12.514;2023-10-13T11:46:11;4.15;;;1.27;;
31126;SDS011;17775;57.948;12.514;2023-10-13T11:48:42;3.00;;;1.35;;
31126;SDS011;17775;57.948;12.514;2023-10-13T11:51:10;3.05;;;1.48;;
31126;SDS011;17775;57.948;12.514;2023-10-13T11:53:44;5.07;;;1.30;;
31126;SDS011;17775;57.948;12.514;2023-10-13T11:56:19;4.70;;;1.60;;
31126;SDS011;17775;57.948;12.514;2023-10-13T11:58:49;6.93;;;1.80;;
31126;SDS011;17775;57.948;12.514;2023-10-13T12:01:16;4.38;;;1.50;;
31126;SDS011;17775;57.948;12.514;2023-10-13T12:04:08;5.32;;;1.90;;
31126;SDS011;17775;57.948;12.514;2023-10-13T12:06:54;5.68;;;1.52;;
31126;SDS011;17775;57.948;12.514;2023-10-13T12:09:43;2.47;;;1.00;;
31126;SDS011;17775;57.948;12.514;2023-10-13T12:12:26;1.85;;;0.82;;
31126;SDS011;17775;57.948;12.514;2023-10-13T12:14:53;2.28;;;0.98;;
31126;SDS011;17775;57.948;12.514;2023-10-13T12:17:22;3.38;;;1.00;;
31126;SDS011;17775;57.948;12.514;2023-10-13T12:19:52;2.47;;;0.93;;
31126;SDS011;17775;57.948;12.514;2023-10-13T12:22:18;3.50;;;1.08;;
31126;SDS011;17775;57.948;12.514;2023-10-13T12:24:56;3.88;;;1.00;;
31126;SDS011;17775;57.948;12.514;2023-10-13T12:27:23;1.42;;;0.73;;
31126;SDS011;17775;57.948;12.514;2023-10-13T12:29:50;1.63;;;0.93;;
31126;SDS011;17775;57.948;12.514;2023-10-13T12:32:18;2.17;;;0.95;;
31126;SDS011;17775;57.948;12.514;2023-10-13T12:34:57;1.83;;;0.88;;
31126;SDS011;17775;57.948;12.514;2023-10-13T12:37:28;2.80;;;0.90;;
31126;SDS011;17775;57.948;12.514;2023-10-13T12:40:13;0.88;;;0.57;;
31126;SDS011;17775;57.948;12.514;2023-10-13T12:42:58;2.10;;;0.95;;
31126;SDS011;17775;57.948;12.514;2023-10-13T12:45:44;3.03;;;0.95;;
31126;SDS011;17775;57.948;12.514;2023-10-13T12:48:30;4.03;;;0.90;;
31126;SDS011;17775;57.948;12.514;2023-10-13T12:51:15;3.22;;;1.13;;
31126;SDS011;17775;57.948;12.514;2023-10-13T12:53:50;1.20;;;0.70;;
31126;SDS011;17775;57.948;12.514;2023-10-13T12:56:18;4.15;;;0.95;;
31126;SDS011;17775;57.948;12.514;2023-10-13T12:58:52;1.77;;;0.88;;
31126;SDS011;17775;57.948;12.514;2023-10-13T13:01:19;1.92;;;0.60;;
31126;SDS011;17775;57.948;12.514;2023-10-13T13:03:49;2.60;;;0.77;;
31126;SDS011;17775;57.948;12.514;2023-10-13T13:06:17;1.35;;;0.70;;
31126;SDS011;17775;57.948;12.514;2023-10-13T13:08:44;1.65;;;0.73;;
31126;SDS011;17775;57.948;12.514;2023-10-13T13:11:10;1.75;;;0.65;;
31126;SDS011;17775;57.948;12.514;2023-10-13T13:13:37;4.03;;;1.10;;
31126;SDS011;17775;57.948;12.514;2023-10-13T13:16:03;2.03;;;0.98;;
31126;SDS011;17775;57.948;12.514;2023-10-13T13:18:30;1.02;;;0.60;;
31126;SDS011;17775;57.948;12.514;2023-10-13T13:20:56;0.63;;;0.55;;
31126;SDS011;17775;57.948;12.514;2023-10-13T13:23:23;1.27;;;0.60;;
31126;SDS011;17775;57.948;12.514;2023-10-13T13:25:53;0.75;;;0.60;;
31126;SDS011;17775;57.948;12.514;2023-10-13T13:28:19;0.80;;;0.45;;
31126;SDS011;17775;57.948;12.514;2023-10-13T13:30:49;0.80;;;0.60;;
31126;SDS011;17775;57.948;12.514;2023-10-13T13:33:17;0.68;;;0.50;;
31126;SDS011;17775;57.948;12.514;2023-10-13T13:35:52;0.35;;;0.30;;
31126;SDS011;17775;57.948;12.514;2023-10-13T13:38:19;0.82;;;0.40;;
31126;SDS011;17775;57.948;12.514;2023-10-13T13:40:48;0.70;;;0.43;;
31126;SDS011;17775;57.948;12.514;2023-10-13T13:43:16;0.40;;;0.40;;
31126;SDS011;17775;57.948;12.514;2023-10-13T13:46:01;1.15;;;0.40;;
31126;SDS011;17775;57.948;12.514;2023-10-13T13:48:29;0.30;;;0.30;;
31126;SDS011;17775;57.948;12.514;2023-10-13T13:50:56;0.32;;;0.30;;
31126;SDS011;17775;57.948;12.514;2023-10-13T13:53:30;0.35;;;0.35;;
31126;SDS011;17775;57.948;12.514;2023-10-13T13:56:01;0.30;;;0.30;;
31126;SDS011;17775;57.948;12.514;2023-10-13T13:58:29;0.38;;;0.38;;
31126;SDS011;17775;57.948;12.514;2023-10-13T14:00:59;0.30;;;0.30;;
31126;SDS011;17775;57.948;12.514;2023-10-13T14:03:26;0.20;;;0.20;;
31126;SDS011;17775;57.948;12.514;2023-10-13T14:05:58;0.47;;;0.30;;
31126;SDS011;17775;57.948;12.514;2023-10-13T14:08:46;0.40;;;0.38;;
31126;SDS011;17775;57.948;12.514;2023-10-13T14:14:04;0.30;;;0.20;;
31126;SDS011;17775;57.948;12.514;2023-10-13T14:19:17;1.10;;;0.50;;
31126;SDS011;17775;57.948;12.514;2023-10-13T14:22:05;0.63;;;0.32;;
31126;SDS011;17775;57.948;12.514;2023-10-13T14:24:38;0.30;;;0.30;;
31126;SDS011;17775;57.948;12.514;2023-10-13T14:27:14;0.63;;;0.30;;
31126;SDS011;17775;57.948;12.514;2023-10-13T14:29:44;0.75;;;0.30;;
31126;SDS011;17775;57.948;12.514;2023-10-13T14:32:12;0.52;;;0.30;;
31126;SDS011;17775;57.948;12.514;2023-10-13T14:34:40;0.38;;;0.38;;
31126;SDS011;17775;57.948;12.514;2023-10-13T14:37:07;0.50;;;0.30;;
31126;SDS011;17775;57.948;12.514;2023-10-13T14:39:33;0.28;;;0.28;;
31126;SDS011;17775;57.948;12.514;2023-10-13T14:42:02;0.45;;;0.45;;
31126;SDS011;17775;57.948;12.514;2023-10-13T14:44:28;0.35;;;0.30;;
31126;SDS011;17775;57.948;12.514;2023-10-13T14:46:55;0.30;;;0.30;;
31126;SDS011;17775;57.948;12.514;2023-10-13T14:49:22;0.30;;;0.30;;
31126;SDS011;17775;57.948;12.514;2023-10-13T14:51:48;0.30;;;0.30;;
31126;SDS011;17775;57.948;12.514;2023-10-13T14:54:16;0.25;;;0.25;;
31126;SDS011;17775;57.948;12.514;2023-10-13T14:56:42;0.20;;;0.20;;
31126;SDS011;17775;57.948;12.514;2023-10-13T14:59:09;0.45;;;0.32;;
31126;SDS011;17775;57.948;12.514;2023-10-13T15:01:45;0.30;;;0.30;;
31126;SDS011;17775;57.948;12.514;2023-10-13T15:04:13;0.47;;;0.40;;
31126;SDS011;17775;57.948;12.514;2023-10-13T15:06:39;0.38;;;0.30;;
31126;SDS011;17775;57.948;12.514;2023-10-13T15:09:06;0.35;;;0.35;;
31126;SDS011;17775;57.948;12.514;2023-10-13T15:11:37;0.20;;;0.20;;
31126;SDS011;17775;57.948;12.514;2023-10-13T15:14:14;0.40;;;0.40;;
31126;SDS011;17775;57.948;12.514;2023-10-13T15:16:41;0.20;;;0.20;;
31126;SDS011;17775;57.948;12.514;2023-10-13T15:19:10;0.40;;;0.40;;
31126;SDS011;17775;57.948;12.514;2023-10-13T15:21:36;0.30;;;0.30;;
31126;SDS011;17775;57.948;12.514;2023-10-13T15:24:03;0.70;;;0.40;;
31126;SDS011;17775;57.948;12.514;2023-10-13T15:26:30;0.30;;;0.30;;
31126;SDS011;17775;57.948;12.514;2023-10-13T15:28:59;0.30;;;0.30;;
31126;SDS011;17775;57.948;12.514;2023-10-13T15:31:27;0.30;;;0.30;;
31126;SDS011;17775;57.948;12.514;2023-10-13T15:34:00;0.40;;;0.40;;
31126;SDS011;17775;57.948;12.514;2023-10-13T15:36:29;0.30;;;0.30;;
31126;SDS011;17775;57.948;12.514;2023-10-13T15:38:57;0.20;;;0.20;;
31126;SDS011;17775;57.948;12.514;2023-10-13T15:41:25;0.20;;;0.20;;
31126;SDS011;17775;57.948;12.514;2023-10-13T15:43:53;0.30;;;0.30;;
31126;SDS011;17775;57.948;12.514;2023-10-13T15:46:21;0.30;;;0.30;;